createdAt,value
2019-01-09T00:01:28.487Z,66.90
2019-01-09T00:03:57.688Z,73.47
2019-01-09T00:06:26.847Z,70.17
2019-01-09T00:08:55.973Z,85.53
2019-01-09T00:11:25.141Z,60.13
2019-01-09T00:13:54.294Z,73.70
2019-01-09T00:16:23.515Z,72.33
2019-01-09T00:18:53.052Z,46.17
2019-01-09T00:21:22.218Z,69.73
2019-01-09T00:23:51.336Z,66.30
2019-01-09T00:26:20.507Z,54.33
2019-01-09T00:28:49.714Z,56.80
2019-01-09T00:31:18.800Z,40.57
2019-01-09T00:33:47.981Z,73.90
2019-01-09T00:36:17.530Z,52.07
2019-01-09T00:38:46.694Z,53.97
2019-01-09T00:41:15.869Z,62.73
2019-01-09T00:43:45.125Z,49.53
2019-01-09T00:46:14.308Z,52.63
2019-01-09T00:48:43.476Z,55.70
2019-01-09T00:51:12.845Z,62.13
2019-01-09T00:53:42.008Z,59.73
2019-01-09T00:56:11.174Z,75.37
2019-01-09T00:58:40.390Z,68.13
2019-01-09T01:01:09.945Z,49.57
2019-01-09T01:04:16.196Z,69.37
2019-01-09T01:07:36.861Z,70.03
2019-01-09T01:11:02.486Z,64.03
2019-01-09T01:13:54.766Z,53.30
2019-01-09T01:17:16.199Z,195.13
2019-01-09T01:20:25.636Z,117.33
2019-01-09T01:23:44.909Z,74.13
2019-01-09T01:26:53.057Z,56.23
2019-01-09T01:29:43.533Z,42.77
2019-01-09T01:32:48.049Z,61.17
2019-01-09T01:35:40.276Z,62.73
2019-01-09T01:38:27.082Z,38.23
2019-01-09T01:41:18.895Z,54.97
2019-01-09T01:44:00.041Z,62.53
2019-01-09T01:47:07.640Z,58.70
2019-01-09T01:50:03.505Z,61.27
2019-01-09T01:53:11.713Z,43.87
2019-01-09T01:56:12.518Z,45.27
2019-01-09T01:59:13.782Z,57.07
2019-01-09T02:02:20.971Z,48.10
2019-01-09T02:05:34.732Z,47.13
2019-01-09T02:08:41.984Z,54.90
2019-01-09T02:11:48.087Z,62.30
2019-01-09T02:15:02.808Z,53.70
2019-01-09T02:17:59.452Z,46.77
2019-01-09T02:21:09.201Z,57.37
2019-01-09T02:24:17.951Z,63.80
2019-01-09T02:27:13.412Z,60.50
2019-01-09T02:30:20.568Z,41.30
2019-01-09T02:32:49.742Z,62.13
2019-01-09T02:35:18.818Z,57.17
2019-01-09T02:37:48.020Z,53.53
2019-01-09T02:40:17.184Z,61.27
2019-01-09T02:42:46.365Z,58.10
2019-01-09T02:45:15.606Z,51.80
2019-01-09T02:47:44.766Z,60.63
2019-01-09T02:50:13.935Z,61.40
2019-01-09T02:52:43.496Z,49.53
2019-01-09T02:55:12.979Z,54.17
2019-01-09T02:57:42.171Z,54.83
2019-01-09T03:00:12.106Z,53.37
2019-01-09T03:02:41.283Z,56.60
2019-01-09T03:05:10.484Z,58.43
2019-01-09T03:07:39.693Z,54.80
2019-01-09T03:10:08.858Z,62.70
2019-01-09T03:12:38.072Z,41.30
2019-01-09T03:15:07.238Z,57.77
2019-01-09T03:17:36.406Z,49.37
2019-01-09T03:20:05.892Z,56.40
2019-01-09T03:22:35.064Z,60.10
2019-01-09T03:25:04.233Z,43.73
2019-01-09T03:27:33.366Z,58.30
2019-01-09T03:30:02.529Z,53.77
2019-01-09T03:32:31.700Z,59.20
2019-01-09T03:35:00.897Z,58.40
2019-01-09T03:37:30.060Z,59.20
2019-01-09T03:39:59.677Z,61.57
2019-01-09T03:42:28.868Z,61.23
2019-01-09T03:44:58.055Z,60.63
2019-01-09T03:47:27.214Z,56.33
2019-01-09T03:49:56.358Z,55.53
2019-01-09T03:52:25.564Z,60.60
2019-01-09T03:54:55.534Z,59.37
2019-01-09T03:57:24.723Z,62.63
2019-01-09T03:59:53.895Z,52.27
2019-01-09T04:02:23.068Z,49.70
2019-01-09T04:04:52.276Z,57.27
2019-01-09T04:07:21.429Z,55.03
2019-01-09T04:09:50.505Z,58.33
2019-01-09T04:12:19.683Z,62.73
2019-01-09T04:14:48.885Z,44.50
2019-01-09T04:17:18.077Z,57.73
2019-01-09T04:19:47.249Z,54.97
2019-01-09T04:22:16.438Z,73.03
2019-01-09T04:24:45.696Z,63.80
2019-01-09T04:27:14.876Z,62.40
2019-01-09T04:29:44.067Z,65.30
2019-01-09T04:32:13.268Z,62.23
2019-01-09T04:34:42.423Z,51.60
2019-01-09T04:37:11.648Z,56.50
2019-01-09T04:39:40.817Z,55.90
2019-01-09T04:42:09.991Z,61.97
2019-01-09T04:44:39.189Z,68.40
2019-01-09T04:47:08.374Z,63.60
2019-01-09T04:49:37.529Z,62.30
2019-01-09T04:52:06.800Z,63.73
2019-01-09T04:54:35.967Z,61.37
2019-01-09T04:57:05.127Z,49.90
2019-01-09T04:59:35.196Z,63.83
2019-01-09T05:02:04.350Z,69.23
2019-01-09T05:04:33.625Z,70.00
2019-01-09T05:07:02.730Z,72.60
2019-01-09T05:09:31.888Z,53.73
2019-01-09T05:12:01.088Z,65.73
2019-01-09T05:14:30.236Z,58.30
2019-01-09T05:16:59.380Z,61.10
2019-01-09T05:19:28.468Z,57.07
2019-01-09T05:21:57.628Z,67.23
2019-01-09T05:24:26.810Z,63.10
2019-01-09T05:26:55.977Z,61.03
2019-01-09T05:29:25.139Z,65.20
2019-01-09T05:31:54.347Z,63.27
2019-01-09T05:34:23.499Z,62.60
2019-01-09T05:36:52.659Z,69.03
2019-01-09T05:39:21.926Z,90.40
2019-01-09T05:41:50.996Z,78.23
2019-01-09T05:44:20.149Z,107.53
2019-01-09T05:46:49.389Z,95.60
2019-01-09T05:49:18.538Z,93.47
2019-01-09T05:51:47.686Z,92.73
2019-01-09T05:54:17.299Z,82.67
2019-01-09T05:56:46.494Z,72.33
2019-01-09T05:59:15.681Z,64.80
2019-01-09T06:01:44.844Z,69.07
2019-01-09T06:04:14.022Z,94.27
2019-01-09T06:06:43.197Z,66.23
2019-01-09T06:09:12.352Z,62.13
2019-01-09T06:11:41.581Z,58.90
2019-01-09T06:14:10.777Z,67.27
2019-01-09T06:16:39.956Z,60.57
2019-01-09T06:19:09.173Z,67.33
2019-01-09T06:21:38.340Z,61.73
2019-01-09T06:24:07.537Z,72.17
2019-01-09T06:26:38.591Z,63.20
2019-01-09T06:29:07.762Z,69.33
2019-01-09T06:31:36.950Z,64.60
2019-01-09T06:34:06.165Z,63.33
2019-01-09T06:36:35.381Z,61.57
2019-01-09T06:39:05.728Z,65.57
2019-01-09T06:41:34.894Z,67.80
2019-01-09T06:44:04.054Z,67.80
2019-01-09T06:46:33.716Z,70.47
2019-01-09T06:49:02.892Z,70.13
2019-01-09T06:51:32.066Z,67.37
2019-01-09T06:54:01.291Z,64.13
2019-01-09T06:56:30.439Z,70.63
2019-01-09T06:58:59.633Z,65.43
2019-01-09T07:01:28.810Z,64.60
2019-01-09T07:03:57.980Z,69.03
2019-01-09T07:06:27.185Z,68.30
2019-01-09T07:08:57.099Z,65.93
2019-01-09T07:11:26.288Z,79.83
2019-01-09T07:13:55.463Z,67.13
2019-01-09T07:16:25.142Z,65.73
2019-01-09T07:18:54.568Z,65.33
2019-01-09T07:21:23.776Z,72.93
2019-01-09T07:23:52.967Z,68.13
2019-01-09T07:26:22.526Z,63.37
2019-01-09T07:28:51.710Z,70.27
2019-01-09T07:31:21.268Z,68.47
2019-01-09T07:33:50.405Z,64.67
2019-01-09T07:36:19.603Z,65.83
2019-01-09T07:38:48.802Z,61.07
2019-01-09T07:41:17.959Z,70.93
2019-01-09T07:43:47.127Z,66.67
2019-01-09T07:46:16.384Z,72.63
2019-01-09T07:48:45.555Z,73.53
2019-01-09T07:51:14.730Z,69.33
2019-01-09T07:53:44.757Z,75.97
2019-01-09T07:56:14.150Z,67.90
2019-01-09T07:58:43.333Z,71.87
2019-01-09T08:01:12.492Z,68.60
2019-01-09T08:03:42.256Z,70.80
2019-01-09T08:06:11.677Z,73.57
2019-01-09T08:08:40.836Z,70.30
2019-01-09T08:11:10.003Z,68.97
2019-01-09T08:13:39.542Z,69.60
2019-01-09T08:16:08.720Z,73.80
2019-01-09T08:18:37.906Z,90.43
2019-01-09T08:21:07.086Z,85.37
2019-01-09T08:23:36.236Z,78.43
2019-01-09T08:26:05.549Z,79.93
2019-01-09T08:28:35.755Z,85.37
2019-01-09T08:31:04.967Z,89.50
2019-01-09T08:33:34.131Z,73.37
2019-01-09T08:36:03.380Z,89.13
2019-01-09T08:38:32.554Z,75.47
2019-01-09T08:41:01.835Z,81.27
2019-01-09T08:43:31.415Z,73.43
2019-01-09T08:46:00.586Z,69.93
2019-01-09T08:48:30.142Z,72.40
2019-01-09T08:50:59.323Z,92.07
2019-01-09T08:53:28.488Z,111.90
2019-01-09T08:55:58.199Z,82.07
2019-01-09T08:58:27.375Z,71.90
2019-01-09T09:00:56.539Z,70.33
2019-01-09T09:03:25.760Z,70.37
2019-01-09T09:05:54.931Z,69.70
2019-01-09T09:08:24.113Z,68.93
2019-01-09T09:10:53.331Z,72.90
2019-01-09T09:13:34.384Z,69.47
2019-01-09T09:16:03.576Z,71.87
2019-01-09T09:18:32.752Z,81.90
2019-01-09T09:21:01.961Z,81.13
2019-01-09T09:23:31.142Z,74.17
2019-01-09T09:26:00.332Z,71.60
2019-01-09T09:28:29.965Z,69.30
2019-01-09T09:30:59.064Z,80.03
2019-01-09T09:33:28.260Z,67.90
2019-01-09T09:35:57.333Z,77.20
2019-01-09T09:38:26.501Z,76.00
2019-01-09T09:40:57.179Z,88.33
2019-01-09T09:43:26.313Z,82.83
2019-01-09T09:45:55.524Z,85.00
2019-01-09T09:48:24.700Z,74.00
2019-01-09T09:50:53.853Z,81.80
2019-01-09T09:53:22.966Z,70.97
2019-01-09T09:55:52.172Z,70.10
2019-01-09T09:58:21.349Z,82.53
2019-01-09T10:00:50.517Z,72.83
2019-01-09T10:03:19.727Z,74.70
2019-01-09T10:05:48.900Z,73.77
2019-01-09T10:08:18.703Z,75.63
2019-01-09T10:10:47.952Z,77.50
2019-01-09T10:13:17.046Z,70.63
2019-01-09T10:15:48.618Z,77.53
2019-01-09T10:18:17.494Z,72.80
2019-01-09T10:20:46.718Z,77.27
2019-01-09T10:23:15.897Z,82.30
2019-01-09T10:25:45.048Z,79.97
2019-01-09T10:28:14.212Z,78.17
2019-01-09T10:30:43.379Z,85.67
2019-01-09T10:33:12.572Z,86.40
2019-01-09T10:35:41.767Z,86.90
2019-01-09T10:38:10.936Z,86.67
2019-01-09T10:40:40.101Z,82.03
2019-01-09T10:43:09.269Z,94.30
2019-01-09T10:45:38.431Z,89.77
2019-01-09T10:48:07.576Z,87.43
2019-01-09T10:50:36.729Z,87.60
2019-01-09T10:53:05.923Z,93.43
2019-01-09T10:55:35.099Z,90.63
2019-01-09T10:58:04.579Z,90.60
2019-01-09T11:00:33.785Z,92.23
2019-01-09T11:03:02.938Z,96.67
2019-01-09T11:05:32.108Z,95.70
2019-01-09T11:08:01.306Z,85.40
2019-01-09T11:10:30.478Z,82.60
2019-01-09T11:12:59.643Z,94.30
2019-01-09T11:15:29.374Z,89.27
2019-01-09T11:17:59.036Z,92.77
2019-01-09T11:20:28.223Z,124.03
2019-01-09T11:22:57.489Z,99.83
2019-01-09T11:25:28.337Z,88.27
2019-01-09T11:27:57.564Z,151.07
2019-01-09T11:30:26.724Z,148.07
2019-01-09T11:32:55.899Z,112.10
2019-01-09T11:35:26.298Z,117.70
2019-01-09T11:37:55.416Z,88.07
2019-01-09T11:40:24.602Z,92.93
2019-01-09T11:42:53.832Z,97.50
2019-01-09T11:45:23.014Z,86.00
2019-01-09T11:47:52.195Z,78.73
2019-01-09T11:50:21.393Z,256.57
2019-01-09T11:52:50.580Z,321.93
2019-01-09T11:55:19.775Z,444.53
2019-01-09T11:57:48.967Z,360.03
2019-01-09T12:00:30.836Z,119.27
2019-01-09T12:03:00.009Z,154.10
2019-01-09T12:05:29.194Z,437.70
2019-01-09T12:07:58.352Z,222.00
2019-01-09T12:10:30.161Z,144.20
2019-01-09T12:12:58.800Z,146.60
2019-01-09T12:15:28.003Z,106.23
2019-01-09T12:17:57.229Z,118.97
2019-01-09T12:20:26.382Z,99.03
2019-01-09T12:22:55.552Z,87.03
2019-01-09T12:25:24.767Z,94.73
2019-01-09T12:27:53.934Z,125.27
2019-01-09T12:30:29.894Z,182.47
2019-01-09T12:32:59.121Z,259.43
2019-01-09T12:35:28.282Z,207.10
2019-01-09T12:37:58.048Z,196.63
2019-01-09T12:40:27.133Z,166.73
2019-01-09T12:42:56.316Z,144.73
2019-01-09T12:45:25.544Z,115.40
2019-01-09T12:47:54.743Z,108.70
2019-01-09T12:50:25.494Z,142.63
2019-01-09T12:52:54.749Z,123.33
2019-01-09T12:55:24.326Z,147.90
2019-01-09T12:57:53.532Z,136.00
2019-01-09T13:00:31.625Z,114.20
2019-01-09T13:03:00.845Z,108.70
2019-01-09T13:05:32.843Z,109.07
2019-01-09T13:08:01.957Z,106.43
2019-01-09T13:10:31.150Z,116.73
2019-01-09T13:13:00.324Z,99.50
2019-01-09T13:15:29.463Z,103.83
2019-01-09T13:17:58.671Z,103.70
2019-01-09T13:20:27.826Z,114.37
2019-01-09T13:22:57.822Z,108.07
2019-01-09T13:25:27.039Z,109.67
2019-01-09T13:27:56.210Z,111.90
2019-01-09T13:30:25.374Z,111.70
2019-01-09T13:32:54.501Z,114.70
2019-01-09T13:35:24.015Z,114.67
2019-01-09T13:37:53.254Z,121.20
2019-01-09T13:40:22.501Z,121.90
2019-01-09T13:42:51.667Z,142.13
2019-01-09T13:45:22.915Z,117.03
2019-01-09T13:47:52.127Z,129.60
2019-01-09T13:50:21.998Z,118.13
2019-01-09T13:52:51.119Z,112.33
2019-01-09T13:55:20.739Z,139.60
2019-01-09T13:57:49.947Z,139.40
2019-01-09T14:00:21.088Z,130.60
2019-01-09T14:02:50.289Z,110.43
2019-01-09T14:05:19.458Z,112.17
2019-01-09T14:07:48.692Z,109.27
2019-01-09T14:10:20.488Z,120.27
2019-01-09T14:12:49.689Z,126.30
2019-01-09T14:15:20.139Z,125.07
2019-01-09T14:17:49.381Z,107.67
2019-01-09T14:20:18.553Z,148.27
2019-01-09T14:22:48.213Z,194.17
2019-01-09T14:25:17.445Z,192.30
2019-01-09T14:27:47.018Z,223.70
2019-01-09T14:30:21.569Z,208.13
2019-01-09T14:32:50.778Z,188.23
2019-01-09T14:35:19.993Z,161.23
2019-01-09T14:37:49.208Z,199.43
2019-01-09T14:40:18.463Z,203.17
2019-01-09T14:42:47.636Z,170.33
2019-01-09T14:45:16.870Z,167.53
2019-01-09T14:47:46.355Z,150.23
2019-01-09T14:50:18.183Z,147.90
2019-01-09T14:52:49.449Z,134.37
2019-01-09T14:55:18.745Z,128.90
2019-01-09T14:57:49.831Z,124.90
2019-01-09T15:00:23.564Z,124.67
2019-01-09T15:02:52.933Z,134.97
2019-01-09T15:05:23.382Z,118.27
2019-01-09T15:07:52.590Z,129.60
2019-01-09T15:10:27.020Z,120.37
2019-01-09T15:12:56.789Z,117.00
2019-01-09T15:15:26.017Z,116.60
2019-01-09T15:17:55.285Z,109.93
2019-01-09T15:20:24.505Z,111.63
2019-01-09T15:22:53.723Z,116.70
2019-01-09T15:25:22.957Z,107.83
2019-01-09T15:27:52.263Z,103.30
2019-01-09T15:30:23.544Z,104.73
2019-01-09T15:32:53.493Z,113.50
2019-01-09T15:35:22.652Z,140.97
2019-01-09T15:37:51.872Z,143.33
2019-01-09T15:40:23.400Z,126.90
2019-01-09T15:42:52.642Z,111.17
2019-01-09T15:45:21.873Z,112.03
2019-01-09T15:47:51.131Z,131.53
2019-01-09T15:50:20.975Z,124.77
2019-01-09T15:52:50.275Z,132.43
2019-01-09T15:55:19.537Z,129.33
2019-01-09T15:57:49.106Z,143.83
2019-01-09T16:00:30.133Z,117.13
2019-01-09T16:03:01.822Z,126.50
2019-01-09T16:05:31.036Z,137.47
2019-01-09T16:08:02.281Z,135.23
2019-01-09T16:10:32.025Z,139.23
2019-01-09T16:13:01.243Z,155.03
2019-01-09T16:15:32.675Z,159.20
2019-01-09T16:18:01.977Z,158.23
2019-01-09T16:20:31.146Z,165.00
2019-01-09T16:23:00.495Z,161.60
2019-01-09T16:25:29.737Z,167.47
2019-01-09T16:27:58.965Z,208.00
2019-01-09T16:31:12.586Z,266.57
2019-01-09T16:33:42.311Z,252.67
2019-01-09T16:36:11.885Z,355.67
2019-01-09T16:38:41.066Z,278.33
2019-01-09T16:41:10.346Z,259.83
2019-01-09T16:43:39.594Z,269.20
2019-01-09T16:49:49.981Z,634.53
2019-01-09T16:52:20.083Z,572.87
2019-01-09T16:54:49.339Z,535.17
2019-01-09T16:57:19.069Z,625.80
2019-01-09T16:59:48.342Z,480.33
2019-01-09T17:02:17.918Z,404.73
2019-01-09T17:04:47.591Z,510.20
2019-01-09T17:07:16.833Z,393.50
2019-01-09T17:09:46.057Z,438.10
2019-01-09T17:12:15.282Z,330.73
2019-01-09T17:14:44.485Z,628.67
2019-01-09T17:17:13.727Z,557.50
2019-01-09T17:19:43.017Z,482.87
2019-01-09T17:22:12.247Z,481.10
2019-01-09T17:24:41.445Z,382.53
2019-01-09T17:27:10.671Z,304.43
2019-01-09T17:29:39.872Z,469.80
2019-01-09T17:32:09.121Z,433.73
2019-01-09T17:34:39.395Z,314.60
2019-01-09T17:37:08.607Z,449.87
2019-01-09T17:39:37.844Z,360.40
2019-01-09T17:42:07.134Z,348.23
2019-01-09T17:44:38.049Z,481.60
2019-01-09T17:47:07.260Z,309.97
2019-01-09T17:49:36.906Z,373.33
2019-01-09T17:52:06.147Z,398.97
2019-01-09T17:54:35.406Z,321.70
2019-01-09T17:57:07.218Z,273.20
2019-01-09T17:59:36.470Z,281.43
2019-01-09T18:02:05.768Z,350.00
2019-01-09T18:04:35.052Z,300.67
2019-01-09T18:07:04.279Z,269.40
2019-01-09T18:09:33.540Z,221.63
2019-01-09T18:12:03.151Z,222.73
2019-01-09T18:14:32.422Z,272.83
2019-01-09T18:17:02.964Z,357.70
2019-01-09T18:19:32.188Z,266.90
2019-01-09T18:22:01.421Z,277.97
2019-01-09T18:24:30.664Z,278.77
2019-01-09T18:26:59.930Z,228.00
2019-01-09T18:29:29.855Z,275.07
2019-01-09T18:32:40.096Z,219.60
2019-01-09T18:35:49.483Z,261.77
2019-01-09T18:39:07.651Z,224.50
2019-01-09T18:42:27.440Z,183.53
2019-01-09T18:45:25.408Z,170.07
2019-01-09T18:48:30.420Z,162.93
2019-01-09T18:51:52.804Z,199.03
2019-01-09T18:54:21.982Z,181.10
2019-01-09T18:56:51.333Z,216.40
2019-01-09T18:59:20.614Z,250.10
2019-01-09T19:01:49.865Z,189.67
2019-01-09T19:04:19.089Z,179.60
2019-01-09T19:06:50.129Z,187.70
2019-01-09T19:09:19.663Z,164.47
2019-01-09T19:11:50.671Z,168.70
2019-01-09T19:14:19.825Z,175.43
2019-01-09T19:16:49.045Z,164.83
2019-01-09T19:19:18.280Z,144.90
2019-01-09T19:21:47.834Z,160.37
2019-01-09T19:24:18.613Z,175.23
2019-01-09T19:26:47.886Z,187.13
2019-01-09T19:29:18.579Z,163.03
2019-01-09T19:31:47.916Z,174.23
2019-01-09T19:34:17.194Z,177.27
2019-01-09T19:36:46.475Z,129.97
2019-01-09T19:39:15.742Z,163.50
2019-01-09T19:41:44.956Z,148.33
2019-01-09T19:44:15.893Z,139.03
2019-01-09T19:46:45.152Z,137.03
2019-01-09T19:49:14.374Z,135.63
2019-01-09T19:51:43.682Z,115.33
2019-01-09T19:54:12.939Z,119.90
2019-01-09T19:56:42.219Z,134.60
2019-01-09T19:59:11.488Z,150.80
2019-01-09T20:01:40.684Z,139.57
2019-01-09T20:04:09.916Z,136.83
2019-01-09T20:06:39.585Z,120.67
2019-01-09T20:09:10.338Z,126.13
2019-01-09T20:11:39.623Z,111.93
2019-01-09T20:14:08.874Z,109.93
2019-01-09T20:16:38.544Z,109.73
2019-01-09T20:19:07.872Z,132.43
2019-01-09T20:21:37.390Z,151.47
2019-01-09T20:24:06.681Z,154.73
2019-01-09T20:26:36.180Z,143.83
2019-01-09T20:29:05.478Z,174.47
2019-01-09T20:31:35.100Z,208.57
2019-01-09T20:34:04.844Z,215.37
2019-01-09T20:36:34.119Z,204.63
2019-01-09T20:39:04.393Z,181.30
2019-01-09T20:41:35.427Z,158.80
2019-01-09T20:44:04.662Z,201.90
2019-01-09T20:46:33.985Z,183.27
2019-01-09T20:49:04.620Z,194.47
2019-01-09T20:51:33.985Z,205.07
2019-01-09T20:54:03.218Z,210.00
2019-01-09T20:56:32.500Z,215.27
2019-01-09T20:59:01.675Z,164.37
2019-01-09T21:01:31.043Z,155.13
2019-01-09T21:04:00.394Z,183.27
2019-01-09T21:06:29.595Z,169.17
2019-01-09T21:08:59.780Z,137.30
2019-01-09T21:11:29.591Z,130.23
2019-01-09T21:13:58.868Z,165.07
2019-01-09T21:16:28.090Z,159.23
2019-01-09T21:18:57.305Z,173.03
2019-01-09T21:21:26.602Z,153.30
2019-01-09T21:23:55.825Z,158.70
2019-01-09T21:26:25.062Z,139.73
2019-01-09T21:28:54.595Z,157.63
2019-01-09T21:31:23.798Z,135.60
2019-01-09T21:33:52.989Z,176.03
2019-01-09T21:36:22.218Z,166.83
2019-01-09T21:38:51.425Z,149.23
2019-01-09T21:41:20.620Z,169.47
2019-01-09T21:43:49.828Z,149.13
2019-01-09T21:46:19.033Z,139.60
2019-01-09T21:48:48.240Z,166.63
2019-01-09T21:51:18.905Z,162.53
2019-01-09T21:53:48.811Z,142.90
2019-01-09T21:56:18.321Z,133.33
2019-01-09T21:58:47.568Z,170.33
2019-01-09T22:01:16.770Z,179.10
2019-01-09T22:03:46.052Z,144.53
2019-01-09T22:06:15.341Z,138.37
2019-01-09T22:08:45.423Z,150.50
2019-01-09T22:11:14.673Z,137.77
2019-01-09T22:13:43.890Z,134.10
2019-01-09T22:16:13.112Z,136.27
2019-01-09T22:18:42.371Z,179.27
2019-01-09T22:21:11.556Z,121.30
2019-01-09T22:23:40.879Z,157.70
2019-01-09T22:26:10.457Z,435.63
2019-01-09T22:28:39.732Z,608.07
2019-01-09T22:31:10.524Z,502.53
2019-01-09T22:33:39.833Z,221.60
2019-01-09T22:36:09.054Z,175.40
2019-01-09T22:38:40.793Z,187.63
2019-01-09T22:41:09.637Z,165.93
2019-01-09T22:43:38.919Z,174.20
2019-01-09T22:46:08.436Z,448.03
2019-01-09T22:48:37.719Z,425.30
2019-01-09T22:51:07.475Z,369.47
2019-01-09T22:53:36.814Z,149.80
2019-01-09T22:56:07.258Z,328.83
2019-01-09T22:58:36.443Z,246.97
2019-01-09T23:01:16.321Z,254.70
2019-01-09T23:03:45.798Z,218.17
2019-01-09T23:06:15.202Z,175.03
2019-01-09T23:08:44.429Z,182.57
2019-01-09T23:11:13.637Z,288.57
2019-01-09T23:13:42.808Z,312.30
2019-01-09T23:16:11.985Z,275.33
2019-01-09T23:18:41.167Z,163.93
2019-01-09T23:21:10.363Z,150.03
2019-01-09T23:23:40.294Z,157.87
2019-01-09T23:26:09.477Z,188.37
2019-01-09T23:28:38.634Z,148.13
2019-01-09T23:31:07.838Z,161.93
2019-01-09T23:33:37.011Z,153.13
2019-01-09T23:36:06.488Z,175.70
2019-01-09T23:38:36.165Z,157.10
2019-01-09T23:41:05.919Z,173.03
2019-01-09T23:43:35.105Z,158.37
2019-01-09T23:46:04.566Z,285.50
2019-01-09T23:48:33.825Z,266.23
2019-01-09T23:51:03.029Z,161.50
2019-01-09T23:53:32.397Z,180.33
2019-01-09T23:56:01.629Z,206.37
2019-01-09T23:58:30.766Z,150.43
